sensor_id;sensor_type;location;lat;lon;timestamp;P1;durP1;ratioP1;P2;durP2;ratioP2
80163;SDS011;70071;55.130;61.268;2024-03-25T00:00:21;1.83;;;0.90;;
80163;SDS011;70071;55.130;61.268;2024-03-25T00:02:50;2.13;;;1.30;;
80163;SDS011;70071;55.130;61.268;2024-03-25T00:05:16;2.25;;;1.48;;
80163;SDS011;70071;55.130;61.268;2024-03-25T00:07:51;1.92;;;1.23;;
80163;SDS011;70071;55.130;61.268;2024-03-25T00:10:18;1.40;;;0.77;;
80163;SDS011;70071;55.130;61.268;2024-03-25T00:12:46;2.45;;;1.27;;
80163;SDS011;70071;55.130;61.268;2024-03-25T00:15:18;1.08;;;0.68;;
80163;SDS011;70071;55.130;61.268;2024-03-25T00:17:45;1.65;;;1.13;;
80163;SDS011;70071;55.130;61.268;2024-03-25T00:20:14;2.47;;;1.13;;
80163;SDS011;70071;55.130;61.268;2024-03-25T00:22:41;1.65;;;1.25;;
80163;SDS011;70071;55.130;61.268;2024-03-25T00:25:07;2.88;;;1.30;;
80163;SDS011;70071;55.130;61.268;2024-03-25T00:27:34;2.50;;;1.00;;
80163;SDS011;70071;55.130;61.268;2024-03-25T00:30:00;2.80;;;1.48;;
80163;SDS011;70071;55.130;61.268;2024-03-25T00:32:27;2.72;;;1.63;;
80163;SDS011;70071;55.130;61.268;2024-03-25T00:34:53;2.80;;;1.10;;
80163;SDS011;70071;55.130;61.268;2024-03-25T00:37:19;2.33;;;1.20;;
80163;SDS011;70071;55.130;61.268;2024-03-25T00:39:45;2.38;;;1.20;;
80163;SDS011;70071;55.130;61.268;2024-03-25T00:42:11;2.40;;;1.17;;
80163;SDS011;70071;55.130;61.268;2024-03-25T00:44:37;2.03;;;1.08;;
80163;SDS011;70071;55.130;61.268;2024-03-25T00:47:03;2.15;;;1.05;;
80163;SDS011;70071;55.130;61.268;2024-03-25T00:49:29;1.80;;;1.13;;
80163;SDS011;70071;55.130;61.268;2024-03-25T00:51:55;2.65;;;1.30;;
80163;SDS011;70071;55.130;61.268;2024-03-25T00:54:21;1.90;;;1.40;;
80163;SDS011;70071;55.130;61.268;2024-03-25T00:56:49;1.58;;;1.10;;
80163;SDS011;70071;55.130;61.268;2024-03-25T00:59:17;2.25;;;1.30;;
80163;SDS011;70071;55.130;61.268;2024-03-25T01:01:43;2.47;;;1.55;;
80163;SDS011;70071;55.130;61.268;2024-03-25T01:04:09;3.13;;;1.45;;
80163;SDS011;70071;55.130;61.268;2024-03-25T01:06:35;1.95;;;1.30;;
80163;SDS011;70071;55.130;61.268;2024-03-25T01:09:01;2.08;;;1.67;;
80163;SDS011;70071;55.130;61.268;2024-03-25T01:11:27;1.38;;;0.95;;
80163;SDS011;70071;55.130;61.268;2024-03-25T01:13:53;1.73;;;0.98;;
80163;SDS011;70071;55.130;61.268;2024-03-25T01:16:19;2.10;;;1.30;;
80163;SDS011;70071;55.130;61.268;2024-03-25T01:18:45;2.38;;;1.20;;
80163;SDS011;70071;55.130;61.268;2024-03-25T01:21:11;2.05;;;1.10;;
80163;SDS011;70071;55.130;61.268;2024-03-25T01:23:37;2.40;;;1.40;;
80163;SDS011;70071;55.130;61.268;2024-03-25T01:26:03;1.50;;;1.10;;
80163;SDS011;70071;55.130;61.268;2024-03-25T01:28:29;2.13;;;1.27;;
80163;SDS011;70071;55.130;61.268;2024-03-25T01:30:55;3.00;;;1.70;;
80163;SDS011;70071;55.130;61.268;2024-03-25T01:33:21;2.63;;;1.33;;
80163;SDS011;70071;55.130;61.268;2024-03-25T01:35:47;2.50;;;1.60;;
80163;SDS011;70071;55.130;61.268;2024-03-25T01:38:13;2.13;;;1.50;;
80163;SDS011;70071;55.130;61.268;2024-03-25T01:40:46;2.17;;;1.58;;
80163;SDS011;70071;55.130;61.268;2024-03-25T01:43:13;3.50;;;1.60;;
80163;SDS011;70071;55.130;61.268;2024-03-25T01:45:39;2.70;;;1.50;;
80163;SDS011;70071;55.130;61.268;2024-03-25T01:48:06;2.17;;;1.38;;
80163;SDS011;70071;55.130;61.268;2024-03-25T01:50:37;3.10;;;1.45;;
80163;SDS011;70071;55.130;61.268;2024-03-25T01:53:12;4.40;;;1.83;;
80163;SDS011;70071;55.130;61.268;2024-03-25T01:55:39;3.45;;;1.60;;
80163;SDS011;70071;55.130;61.268;2024-03-25T01:58:07;3.83;;;1.83;;
80163;SDS011;70071;55.130;61.268;2024-03-25T02:00:33;2.03;;;1.45;;
80163;SDS011;70071;55.130;61.268;2024-03-25T02:03:00;4.05;;;1.52;;
80163;SDS011;70071;55.130;61.268;2024-03-25T02:05:26;2.63;;;1.42;;
80163;SDS011;70071;55.130;61.268;2024-03-25T02:07:52;2.22;;;1.48;;
80163;SDS011;70071;55.130;61.268;2024-03-25T02:10:19;2.55;;;2.00;;
80163;SDS011;70071;55.130;61.268;2024-03-25T02:12:49;2.53;;;1.67;;
80163;SDS011;70071;55.130;61.268;2024-03-25T02:15:18;2.60;;;1.65;;
80163;SDS011;70071;55.130;61.268;2024-03-25T02:17:44;3.17;;;1.33;;
80163;SDS011;70071;55.130;61.268;2024-03-25T02:20:11;1.90;;;1.23;;
80163;SDS011;70071;55.130;61.268;2024-03-25T02:22:41;2.72;;;1.25;;
80163;SDS011;70071;55.130;61.268;2024-03-25T02:25:08;2.85;;;1.38;;
80163;SDS011;70071;55.130;61.268;2024-03-25T02:27:35;3.08;;;1.67;;
80163;SDS011;70071;55.130;61.268;2024-03-25T02:30:05;5.68;;;2.20;;
80163;SDS011;70071;55.130;61.268;2024-03-25T02:32:33;2.53;;;1.88;;
80163;SDS011;70071;55.130;61.268;2024-03-25T02:34:59;2.55;;;1.70;;
80163;SDS011;70071;55.130;61.268;2024-03-25T02:37:29;3.78;;;2.00;;
80163;SDS011;70071;55.130;61.268;2024-03-25T02:39:57;3.30;;;1.65;;
80163;SDS011;70071;55.130;61.268;2024-03-25T02:42:28;2.67;;;1.73;;
80163;SDS011;70071;55.130;61.268;2024-03-25T02:44:57;2.75;;;1.80;;
80163;SDS011;70071;55.130;61.268;2024-03-25T02:47:24;2.17;;;1.83;;
80163;SDS011;70071;55.130;61.268;2024-03-25T02:49:50;2.78;;;2.10;;
80163;SDS011;70071;55.130;61.268;2024-03-25T02:52:17;3.70;;;2.00;;
80163;SDS011;70071;55.130;61.268;2024-03-25T02:54:46;2.67;;;1.65;;
80163;SDS011;70071;55.130;61.268;2024-03-25T02:57:12;6.47;;;2.30;;
80163;SDS011;70071;55.130;61.268;2024-03-25T02:59:38;2.70;;;1.75;;
80163;SDS011;70071;55.130;61.268;2024-03-25T03:02:04;3.17;;;1.85;;
80163;SDS011;70071;55.130;61.268;2024-03-25T03:04:30;3.47;;;1.17;;
80163;SDS011;70071;55.130;61.268;2024-03-25T03:06:56;4.05;;;2.00;;
80163;SDS011;70071;55.130;61.268;2024-03-25T03:09:22;2.92;;;1.77;;
80163;SDS011;70071;55.130;61.268;2024-03-25T03:11:48;2.75;;;1.67;;
80163;SDS011;70071;55.130;61.268;2024-03-25T03:14:14;3.40;;;1.73;;
80163;SDS011;70071;55.130;61.268;2024-03-25T03:16:40;2.67;;;2.10;;
80163;SDS011;70071;55.130;61.268;2024-03-25T03:19:07;2.45;;;1.67;;
80163;SDS011;70071;55.130;61.268;2024-03-25T03:21:33;3.30;;;2.05;;
80163;SDS011;70071;55.130;61.268;2024-03-25T03:23:59;2.47;;;1.60;;
80163;SDS011;70071;55.130;61.268;2024-03-25T03:26:24;4.00;;;2.03;;
80163;SDS011;70071;55.130;61.268;2024-03-25T03:28:53;3.50;;;1.90;;
80163;SDS011;70071;55.130;61.268;2024-03-25T03:31:19;2.50;;;2.00;;
80163;SDS011;70071;55.130;61.268;2024-03-25T03:37:04;2.40;;;1.52;;
80163;SDS011;70071;55.130;61.268;2024-03-25T03:39:30;2.95;;;2.13;;
80163;SDS011;70071;55.130;61.268;2024-03-25T03:41:56;4.85;;;2.60;;
80163;SDS011;70071;55.130;61.268;2024-03-25T03:44:22;3.33;;;2.05;;
80163;SDS011;70071;55.130;61.268;2024-03-25T03:46:48;3.97;;;2.38;;
80163;SDS011;70071;55.130;61.268;2024-03-25T03:49:17;3.22;;;2.10;;
80163;SDS011;70071;55.130;61.268;2024-03-25T03:51:43;4.55;;;2.00;;
80163;SDS011;70071;55.130;61.268;2024-03-25T03:54:09;3.95;;;2.72;;
80163;SDS011;70071;55.130;61.268;2024-03-25T03:56:35;5.40;;;2.22;;
80163;SDS011;70071;55.130;61.268;2024-03-25T03:59:01;4.50;;;2.50;;
80163;SDS011;70071;55.130;61.268;2024-03-25T04:01:26;3.33;;;2.22;;
80163;SDS011;70071;55.130;61.268;2024-03-25T04:03:53;3.38;;;2.58;;
80163;SDS011;70071;55.130;61.268;2024-03-25T04:06:20;5.82;;;2.47;;
80163;SDS011;70071;55.130;61.268;2024-03-25T04:08:46;4.57;;;2.90;;
80163;SDS011;70071;55.130;61.268;2024-03-25T04:11:12;4.90;;;2.83;;
80163;SDS011;70071;55.130;61.268;2024-03-25T04:13:38;5.47;;;2.08;;
80163;SDS011;70071;55.130;61.268;2024-03-25T04:16:05;3.92;;;2.45;;
80163;SDS011;70071;55.130;61.268;2024-03-25T04:18:32;4.07;;;2.38;;
80163;SDS011;70071;55.130;61.268;2024-03-25T04:20:59;2.20;;;1.25;;
80163;SDS011;70071;55.130;61.268;2024-03-25T04:23:25;3.55;;;2.58;;
80163;SDS011;70071;55.130;61.268;2024-03-25T04:28:17;3.17;;;2.13;;
80163;SDS011;70071;55.130;61.268;2024-03-25T04:33:15;3.15;;;2.08;;
80163;SDS011;70071;55.130;61.268;2024-03-25T04:35:41;3.00;;;2.05;;
80163;SDS011;70071;55.130;61.268;2024-03-25T04:38:08;3.05;;;2.28;;
80163;SDS011;70071;55.130;61.268;2024-03-25T04:40:41;4.68;;;2.38;;
80163;SDS011;70071;55.130;61.268;2024-03-25T04:43:19;3.42;;;2.15;;
80163;SDS011;70071;55.130;61.268;2024-03-25T04:45:46;2.97;;;1.70;;
80163;SDS011;70071;55.130;61.268;2024-03-25T04:48:12;4.22;;;2.53;;
80163;SDS011;70071;55.130;61.268;2024-03-25T04:50:58;4.05;;;2.10;;
80163;SDS011;70071;55.130;61.268;2024-03-25T04:53:25;3.40;;;2.08;;
80163;SDS011;70071;55.130;61.268;2024-03-25T04:55:51;3.38;;;2.13;;
80163;SDS011;70071;55.130;61.268;2024-03-25T05:01:27;3.55;;;1.80;;
80163;SDS011;70071;55.130;61.268;2024-03-25T05:03:57;4.00;;;2.20;;
80163;SDS011;70071;55.130;61.268;2024-03-25T05:06:24;1.48;;;0.88;;
80163;SDS011;70071;55.130;61.268;2024-03-25T05:08:50;2.78;;;1.60;;
80163;SDS011;70071;55.130;61.268;2024-03-25T05:11:16;2.92;;;1.70;;
80163;SDS011;70071;55.130;61.268;2024-03-25T05:13:42;2.95;;;2.03;;
80163;SDS011;70071;55.130;61.268;2024-03-25T05:16:36;2.90;;;1.80;;
80163;SDS011;70071;55.130;61.268;2024-03-25T05:19:18;2.10;;;1.55;;
80163;SDS011;70071;55.130;61.268;2024-03-25T05:24:17;4.03;;;1.92;;
80163;SDS011;70071;55.130;61.268;2024-03-25T05:26:59;2.75;;;1.60;;
80163;SDS011;70071;55.130;61.268;2024-03-25T05:29:26;2.08;;;1.70;;
80163;SDS011;70071;55.130;61.268;2024-03-25T05:31:59;3.40;;;1.80;;
80163;SDS011;70071;55.130;61.268;2024-03-25T05:34:28;3.00;;;1.63;;
80163;SDS011;70071;55.130;61.268;2024-03-25T05:36:55;2.30;;;1.48;;
80163;SDS011;70071;55.130;61.268;2024-03-25T05:39:21;2.10;;;1.60;;
80163;SDS011;70071;55.130;61.268;2024-03-25T05:41:47;2.20;;;1.70;;
80163;SDS011;70071;55.130;61.268;2024-03-25T05:44:14;3.20;;;1.83;;
80163;SDS011;70071;55.130;61.268;2024-03-25T05:46:40;5.05;;;2.38;;
80163;SDS011;70071;55.130;61.268;2024-03-25T05:49:06;2.78;;;1.73;;
80163;SDS011;70071;55.130;61.268;2024-03-25T05:51:32;3.40;;;1.77;;
80163;SDS011;70071;55.130;61.268;2024-03-25T05:54:10;3.22;;;1.77;;
80163;SDS011;70071;55.130;61.268;2024-03-25T05:56:39;2.17;;;1.38;;
80163;SDS011;70071;55.130;61.268;2024-03-25T05:59:05;2.15;;;1.48;;
80163;SDS011;70071;55.130;61.268;2024-03-25T06:01:31;2.28;;;1.42;;
80163;SDS011;70071;55.130;61.268;2024-03-25T06:03:59;3.75;;;1.90;;
80163;SDS011;70071;55.130;61.268;2024-03-25T06:06:25;3.67;;;1.50;;
80163;SDS011;70071;55.130;61.268;2024-03-25T06:08:51;2.13;;;1.13;;
80163;SDS011;70071;55.130;61.268;2024-03-25T06:11:17;2.65;;;1.48;;
80163;SDS011;70071;55.130;61.268;2024-03-25T06:13:46;4.22;;;1.50;;
80163;SDS011;70071;55.130;61.268;2024-03-25T06:16:13;2.42;;;1.60;;
80163;SDS011;70071;55.130;61.268;2024-03-25T06:18:58;3.47;;;1.35;;
80163;SDS011;70071;55.130;61.268;2024-03-25T06:21:27;1.95;;;1.30;;
80163;SDS011;70071;55.130;61.268;2024-03-25T06:23:59;4.53;;;1.40;;
80163;SDS011;70071;55.130;61.268;2024-03-25T06:26:28;2.78;;;1.40;;
80163;SDS011;70071;55.130;61.268;2024-03-25T06:28:54;4.10;;;1.98;;
80163;SDS011;70071;55.130;61.268;2024-03-25T06:31:20;3.28;;;1.80;;
80163;SDS011;70071;55.130;61.268;2024-03-25T06:34:04;2.70;;;1.67;;
80163;SDS011;70071;55.130;61.268;2024-03-25T06:36:56;2.85;;;1.20;;
80163;SDS011;70071;55.130;61.268;2024-03-25T06:39:25;1.42;;;0.90;;
80163;SDS011;70071;55.130;61.268;2024-03-25T06:41:51;2.33;;;1.08;;
80163;SDS011;70071;55.130;61.268;2024-03-25T06:44:17;2.00;;;1.27;;
80163;SDS011;70071;55.130;61.268;2024-03-25T06:46:43;1.52;;;0.90;;
80163;SDS011;70071;55.130;61.268;2024-03-25T06:49:09;1.15;;;0.65;;
80163;SDS011;70071;55.130;61.268;2024-03-25T06:51:35;2.13;;;1.00;;
80163;SDS011;70071;55.130;61.268;2024-03-25T06:54:01;1.75;;;1.00;;
80163;SDS011;70071;55.130;61.268;2024-03-25T06:56:27;2.53;;;1.00;;
80163;SDS011;70071;55.130;61.268;2024-03-25T07:01:27;0.75;;;0.40;;
80163;SDS011;70071;55.130;61.268;2024-03-25T07:03:53;1.17;;;0.73;;
80163;SDS011;70071;55.130;61.268;2024-03-25T07:06:20;1.80;;;1.00;;
80163;SDS011;70071;55.130;61.268;2024-03-25T07:08:51;1.40;;;0.82;;
80163;SDS011;70071;55.130;61.268;2024-03-25T07:11:17;3.60;;;1.00;;
80163;SDS011;70071;55.130;61.268;2024-03-25T07:13:44;1.83;;;1.05;;
80163;SDS011;70071;55.130;61.268;2024-03-25T07:16:11;1.58;;;0.88;;
80163;SDS011;70071;55.130;61.268;2024-03-25T07:18:38;1.20;;;0.88;;
80163;SDS011;70071;55.130;61.268;2024-03-25T07:21:04;1.85;;;0.90;;
80163;SDS011;70071;55.130;61.268;2024-03-25T07:25:56;1.42;;;0.80;;
80163;SDS011;70071;55.130;61.268;2024-03-25T07:28:22;4.32;;;1.10;;
80163;SDS011;70071;55.130;61.268;2024-03-25T07:30:49;1.40;;;0.73;;
80163;SDS011;70071;55.130;61.268;2024-03-25T07:33:36;1.20;;;0.70;;
80163;SDS011;70071;55.130;61.268;2024-03-25T07:36:04;1.52;;;1.00;;
80163;SDS011;70071;55.130;61.268;2024-03-25T07:38:30;2.00;;;0.88;;
80163;SDS011;70071;55.130;61.268;2024-03-25T07:41:02;1.30;;;0.90;;
80163;SDS011;70071;55.130;61.268;2024-03-25T07:43:31;1.13;;;0.80;;
80163;SDS011;70071;55.130;61.268;2024-03-25T07:45:57;2.03;;;0.80;;
80163;SDS011;70071;55.130;61.268;2024-03-25T07:48:23;1.00;;;0.60;;
80163;SDS011;70071;55.130;61.268;2024-03-25T07:50:49;1.77;;;0.70;;
80163;SDS011;70071;55.130;61.268;2024-03-25T07:53:15;1.23;;;0.77;;
80163;SDS011;70071;55.130;61.268;2024-03-25T07:55:41;1.60;;;0.77;;
80163;SDS011;70071;55.130;61.268;2024-03-25T07:58:07;1.05;;;0.75;;
80163;SDS011;70071;55.130;61.268;2024-03-25T08:00:33;1.77;;;0.57;;
80163;SDS011;70071;55.130;61.268;2024-03-25T08:03:00;1.58;;;0.68;;
80163;SDS011;70071;55.130;61.268;2024-03-25T08:05:26;1.30;;;0.80;;
80163;SDS011;70071;55.130;61.268;2024-03-25T08:07:54;1.40;;;0.90;;
80163;SDS011;70071;55.130;61.268;2024-03-25T08:10:20;1.10;;;0.60;;
80163;SDS011;70071;55.130;61.268;2024-03-25T08:12:47;1.30;;;1.00;;
80163;SDS011;70071;55.130;61.268;2024-03-25T08:15:14;1.30;;;0.73;;
80163;SDS011;70071;55.130;61.268;2024-03-25T08:17:40;1.27;;;0.98;;
80163;SDS011;70071;55.130;61.268;2024-03-25T08:20:06;1.70;;;0.90;;
80163;SDS011;70071;55.130;61.268;2024-03-25T08:22:34;2.20;;;1.13;;
80163;SDS011;70071;55.130;61.268;2024-03-25T08:24:59;3.42;;;1.10;;
80163;SDS011;70071;55.130;61.268;2024-03-25T08:27:25;1.48;;;1.20;;
80163;SDS011;70071;55.130;61.268;2024-03-25T08:29:51;2.67;;;1.10;;
80163;SDS011;70071;55.130;61.268;2024-03-25T08:32:19;1.88;;;0.80;;
80163;SDS011;70071;55.130;61.268;2024-03-25T08:34:45;1.55;;;0.85;;
80163;SDS011;70071;55.130;61.268;2024-03-25T08:39:37;1.60;;;0.63;;
80163;SDS011;70071;55.130;61.268;2024-03-25T08:42:03;0.88;;;0.63;;
80163;SDS011;70071;55.130;61.268;2024-03-25T08:44:29;1.08;;;0.73;;
80163;SDS011;70071;55.130;61.268;2024-03-25T08:46:55;1.02;;;0.75;;
80163;SDS011;70071;55.130;61.268;2024-03-25T08:49:21;1.00;;;0.60;;
80163;SDS011;70071;55.130;61.268;2024-03-25T08:51:47;2.15;;;1.00;;
80163;SDS011;70071;55.130;61.268;2024-03-25T08:54:13;1.70;;;0.73;;
80163;SDS011;70071;55.130;61.268;2024-03-25T08:56:39;1.15;;;0.80;;
80163;SDS011;70071;55.130;61.268;2024-03-25T08:59:06;1.00;;;0.47;;
80163;SDS011;70071;55.130;61.268;2024-03-25T09:01:34;1.10;;;0.70;;
80163;SDS011;70071;55.130;61.268;2024-03-25T09:04:01;1.10;;;0.63;;
80163;SDS011;70071;55.130;61.268;2024-03-25T09:06:27;2.05;;;0.80;;
80163;SDS011;70071;55.130;61.268;2024-03-25T09:08:53;2.05;;;0.70;;
80163;SDS011;70071;55.130;61.268;2024-03-25T09:11:37;2.45;;;0.80;;
80163;SDS011;70071;55.130;61.268;2024-03-25T09:14:03;0.95;;;0.65;;
80163;SDS011;70071;55.130;61.268;2024-03-25T09:16:31;1.27;;;0.93;;
80163;SDS011;70071;55.130;61.268;2024-03-25T09:18:57;1.73;;;0.82;;
80163;SDS011;70071;55.130;61.268;2024-03-25T09:21:23;0.95;;;0.68;;
80163;SDS011;70071;55.130;61.268;2024-03-25T09:23:50;1.20;;;0.80;;
80163;SDS011;70071;55.130;61.268;2024-03-25T09:26:16;1.40;;;0.75;;
80163;SDS011;70071;55.130;61.268;2024-03-25T09:28:42;1.67;;;0.70;;
80163;SDS011;70071;55.130;61.268;2024-03-25T09:31:08;1.40;;;0.95;;
80163;SDS011;70071;55.130;61.268;2024-03-25T09:33:34;2.15;;;0.80;;
80163;SDS011;70071;55.130;61.268;2024-03-25T09:36:00;1.13;;;0.80;;
80163;SDS011;70071;55.130;61.268;2024-03-25T09:38:26;2.15;;;0.80;;
80163;SDS011;70071;55.130;61.268;2024-03-25T09:40:53;1.30;;;0.88;;
80163;SDS011;70071;55.130;61.268;2024-03-25T09:45:48;2.20;;;0.82;;
80163;SDS011;70071;55.130;61.268;2024-03-25T09:48:15;1.27;;;0.80;;
80163;SDS011;70071;55.130;61.268;2024-03-25T09:50:44;1.60;;;0.98;;
80163;SDS011;70071;55.130;61.268;2024-03-25T09:53:11;2.17;;;0.80;;
80163;SDS011;70071;55.130;61.268;2024-03-25T09:55:37;1.38;;;0.77;;
80163;SDS011;70071;55.130;61.268;2024-03-25T09:58:03;1.35;;;0.80;;
80163;SDS011;70071;55.130;61.268;2024-03-25T10:00:30;1.80;;;0.90;;
80163;SDS011;70071;55.130;61.268;2024-03-25T10:02:56;1.42;;;0.90;;
80163;SDS011;70071;55.130;61.268;2024-03-25T10:05:22;1.77;;;1.00;;
80163;SDS011;70071;55.130;61.268;2024-03-25T10:07:49;1.65;;;0.98;;
80163;SDS011;70071;55.130;61.268;2024-03-25T10:10:19;1.30;;;0.80;;
80163;SDS011;70071;55.130;61.268;2024-03-25T10:12:45;1.65;;;0.90;;
80163;SDS011;70071;55.130;61.268;2024-03-25T10:15:17;1.50;;;0.95;;
80163;SDS011;70071;55.130;61.268;2024-03-25T10:17:44;1.88;;;1.10;;
80163;SDS011;70071;55.130;61.268;2024-03-25T10:20:16;1.42;;;1.17;;
80163;SDS011;70071;55.130;61.268;2024-03-25T10:22:42;3.00;;;0.85;;
80163;SDS011;70071;55.130;61.268;2024-03-25T10:25:28;1.48;;;1.30;;
80163;SDS011;70071;55.130;61.268;2024-03-25T10:30:22;1.50;;;1.10;;
80163;SDS011;70071;55.130;61.268;2024-03-25T10:33:01;2.00;;;1.17;;
80163;SDS011;70071;55.130;61.268;2024-03-25T10:35:29;1.83;;;1.17;;
80163;SDS011;70071;55.130;61.268;2024-03-25T10:37:58;3.30;;;1.30;;
80163;SDS011;70071;55.130;61.268;2024-03-25T10:40:32;2.67;;;1.38;;
80163;SDS011;70071;55.130;61.268;2024-03-25T10:43:01;1.15;;;0.90;;
80163;SDS011;70071;55.130;61.268;2024-03-25T10:45:29;1.95;;;1.13;;
80163;SDS011;70071;55.130;61.268;2024-03-25T10:47:57;1.17;;;0.70;;
80163;SDS011;70071;55.130;61.268;2024-03-25T10:50:28;2.53;;;1.10;;
80163;SDS011;70071;55.130;61.268;2024-03-25T10:52:54;1.52;;;0.93;;
80163;SDS011;70071;55.130;61.268;2024-03-25T10:55:24;1.88;;;1.13;;
80163;SDS011;70071;55.130;61.268;2024-03-25T10:57:52;2.10;;;1.45;;
80163;SDS011;70071;55.130;61.268;2024-03-25T11:00:22;2.72;;;1.70;;
80163;SDS011;70071;55.130;61.268;2024-03-25T11:02:48;2.58;;;1.33;;
80163;SDS011;70071;55.130;61.268;2024-03-25T11:05:16;2.95;;;1.55;;
80163;SDS011;70071;55.130;61.268;2024-03-25T11:07:42;1.77;;;1.13;;
80163;SDS011;70071;55.130;61.268;2024-03-25T11:10:08;2.72;;;1.50;;
80163;SDS011;70071;55.130;61.268;2024-03-25T11:12:35;2.40;;;1.55;;
80163;SDS011;70071;55.130;61.268;2024-03-25T11:15:03;2.08;;;1.60;;
80163;SDS011;70071;55.130;61.268;2024-03-25T11:20:17;1.58;;;1.08;;
80163;SDS011;70071;55.130;61.268;2024-03-25T11:25:21;1.88;;;1.30;;
80163;SDS011;70071;55.130;61.268;2024-03-25T11:27:47;1.73;;;1.13;;
80163;SDS011;70071;55.130;61.268;2024-03-25T11:30:14;2.20;;;1.05;;
80163;SDS011;70071;55.130;61.268;2024-03-25T11:32:45;2.88;;;1.40;;
80163;SDS011;70071;55.130;61.268;2024-03-25T11:35:12;2.00;;;1.20;;
80163;SDS011;70071;55.130;61.268;2024-03-25T11:37:42;1.65;;;1.33;;
80163;SDS011;70071;55.130;61.268;2024-03-25T11:40:09;2.63;;;1.20;;
80163;SDS011;70071;55.130;61.268;2024-03-25T11:42:38;4.07;;;1.67;;
80163;SDS011;70071;55.130;61.268;2024-03-25T11:45:13;3.67;;;1.77;;
80163;SDS011;70071;55.130;61.268;2024-03-25T11:47:43;1.70;;;1.20;;
80163;SDS011;70071;55.130;61.268;2024-03-25T11:50:14;3.35;;;1.70;;
80163;SDS011;70071;55.130;61.268;2024-03-25T11:52:42;3.60;;;1.52;;
80163;SDS011;70071;55.130;61.268;2024-03-25T11:55:16;2.78;;;1.70;;
80163;SDS011;70071;55.130;61.268;2024-03-25T11:57:45;2.22;;;1.63;;
80163;SDS011;70071;55.130;61.268;2024-03-25T12:00:11;2.75;;;1.73;;
80163;SDS011;70071;55.130;61.268;2024-03-25T12:02:44;2.67;;;1.73;;
80163;SDS011;70071;55.130;61.268;2024-03-25T12:05:11;3.30;;;1.70;;
80163;SDS011;70071;55.130;61.268;2024-03-25T12:07:37;2.58;;;1.70;;
80163;SDS011;70071;55.130;61.268;2024-03-25T12:10:04;2.50;;;1.73;;
80163;SDS011;70071;55.130;61.268;2024-03-25T12:12:48;2.15;;;1.48;;
80163;SDS011;70071;55.130;61.268;2024-03-25T12:15:18;4.32;;;1.92;;
80163;SDS011;70071;55.130;61.268;2024-03-25T12:17:45;3.55;;;2.22;;
80163;SDS011;70071;55.130;61.268;2024-03-25T12:20:12;2.50;;;1.73;;
80163;SDS011;70071;55.130;61.268;2024-03-25T12:22:38;3.03;;;1.73;;
80163;SDS011;70071;55.130;61.268;2024-03-25T12:25:06;3.38;;;1.75;;
80163;SDS011;70071;55.130;61.268;2024-03-25T12:27:33;2.40;;;1.73;;
80163;SDS011;70071;55.130;61.268;2024-03-25T12:30:00;3.20;;;2.00;;
80163;SDS011;70071;55.130;61.268;2024-03-25T12:35:01;2.15;;;1.70;;
80163;SDS011;70071;55.130;61.268;2024-03-25T12:37:30;2.28;;;1.65;;
80163;SDS011;70071;55.130;61.268;2024-03-25T12:39:56;3.92;;;1.90;;
80163;SDS011;70071;55.130;61.268;2024-03-25T12:42:27;2.63;;;1.70;;
80163;SDS011;70071;55.130;61.268;2024-03-25T12:44:53;3.70;;;1.55;;
80163;SDS011;70071;55.130;61.268;2024-03-25T12:47:20;2.92;;;1.48;;
80163;SDS011;70071;55.130;61.268;2024-03-25T12:52:11;2.75;;;1.63;;
80163;SDS011;70071;55.130;61.268;2024-03-25T12:54:37;2.35;;;1.60;;
80163;SDS011;70071;55.130;61.268;2024-03-25T12:57:07;3.00;;;1.75;;
80163;SDS011;70071;55.130;61.268;2024-03-25T12:59:33;3.15;;;1.77;;
80163;SDS011;70071;55.130;61.268;2024-03-25T13:01:59;2.47;;;1.77;;
80163;SDS011;70071;55.130;61.268;2024-03-25T13:04:26;2.80;;;1.90;;
80163;SDS011;70071;55.130;61.268;2024-03-25T13:06:52;2.13;;;1.73;;
80163;SDS011;70071;55.130;61.268;2024-03-25T13:09:18;2.80;;;1.95;;
80163;SDS011;70071;55.130;61.268;2024-03-25T13:11:45;3.10;;;2.25;;
80163;SDS011;70071;55.130;61.268;2024-03-25T13:14:12;4.70;;;2.20;;
80163;SDS011;70071;55.130;61.268;2024-03-25T13:16:38;4.78;;;2.50;;
80163;SDS011;70071;55.130;61.268;2024-03-25T13:19:05;3.10;;;2.05;;
80163;SDS011;70071;55.130;61.268;2024-03-25T13:21:32;4.00;;;2.03;;
80163;SDS011;70071;55.130;61.268;2024-03-25T13:23:59;3.85;;;2.22;;
80163;SDS011;70071;55.130;61.268;2024-03-25T13:28:51;6.32;;;2.58;;
80163;SDS011;70071;55.130;61.268;2024-03-25T13:31:18;5.70;;;2.47;;
80163;SDS011;70071;55.130;61.268;2024-03-25T13:33:44;3.97;;;2.58;;
80163;SDS011;70071;55.130;61.268;2024-03-25T13:38:41;3.85;;;2.60;;
80163;SDS011;70071;55.130;61.268;2024-03-25T13:41:10;3.00;;;2.20;;
80163;SDS011;70071;55.130;61.268;2024-03-25T13:43:41;4.10;;;2.72;;
80163;SDS011;70071;55.130;61.268;2024-03-25T13:46:08;3.08;;;2.10;;
80163;SDS011;70071;55.130;61.268;2024-03-25T13:48:34;4.40;;;2.58;;
80163;SDS011;70071;55.130;61.268;2024-03-25T13:51:01;3.90;;;3.00;;
80163;SDS011;70071;55.130;61.268;2024-03-25T13:55:52;4.15;;;2.80;;
80163;SDS011;70071;55.130;61.268;2024-03-25T13:58:18;5.25;;;2.80;;
80163;SDS011;70071;55.130;61.268;2024-03-25T14:00:47;4.50;;;2.80;;
80163;SDS011;70071;55.130;61.268;2024-03-25T14:03:14;3.35;;;2.45;;
80163;SDS011;70071;55.130;61.268;2024-03-25T14:05:41;5.40;;;2.72;;
80163;SDS011;70071;55.130;61.268;2024-03-25T14:08:08;3.88;;;2.60;;
80163;SDS011;70071;55.130;61.268;2024-03-25T14:10:35;4.15;;;2.90;;
80163;SDS011;70071;55.130;61.268;2024-03-25T14:13:01;4.75;;;2.47;;
80163;SDS011;70071;55.130;61.268;2024-03-25T14:15:32;4.43;;;3.08;;
80163;SDS011;70071;55.130;61.268;2024-03-25T14:17:58;6.18;;;3.05;;
80163;SDS011;70071;55.130;61.268;2024-03-25T14:20:24;4.90;;;3.25;;
80163;SDS011;70071;55.130;61.268;2024-03-25T14:22:50;4.72;;;2.78;;
80163;SDS011;70071;55.130;61.268;2024-03-25T14:25:16;4.90;;;3.00;;
80163;SDS011;70071;55.130;61.268;2024-03-25T14:27:44;6.03;;;3.30;;
80163;SDS011;70071;55.130;61.268;2024-03-25T14:30:10;4.57;;;3.00;;
80163;SDS011;70071;55.130;61.268;2024-03-25T14:32:37;6.38;;;3.40;;
80163;SDS011;70071;55.130;61.268;2024-03-25T14:35:04;6.30;;;4.05;;
80163;SDS011;70071;55.130;61.268;2024-03-25T14:37:32;5.30;;;3.72;;
80163;SDS011;70071;55.130;61.268;2024-03-25T14:39:58;7.47;;;4.25;;
80163;SDS011;70071;55.130;61.268;2024-03-25T14:44:50;9.18;;;4.30;;
80163;SDS011;70071;55.130;61.268;2024-03-25T14:47:25;7.72;;;4.45;;
80163;SDS011;70071;55.130;61.268;2024-03-25T14:49:56;7.15;;;4.05;;
80163;SDS011;70071;55.130;61.268;2024-03-25T14:52:26;7.65;;;4.28;;
80163;SDS011;70071;55.130;61.268;2024-03-25T14:55:12;8.45;;;4.82;;
80163;SDS011;70071;55.130;61.268;2024-03-25T14:57:38;9.23;;;5.00;;
80163;SDS011;70071;55.130;61.268;2024-03-25T15:00:04;7.03;;;4.43;;
80163;SDS011;70071;55.130;61.268;2024-03-25T15:02:31;8.05;;;4.80;;
80163;SDS011;70071;55.130;61.268;2024-03-25T15:04:57;6.95;;;4.78;;
80163;SDS011;70071;55.130;61.268;2024-03-25T15:07:23;9.15;;;4.75;;
80163;SDS011;70071;55.130;61.268;2024-03-25T15:09:49;7.90;;;4.57;;
80163;SDS011;70071;55.130;61.268;2024-03-25T15:12:15;11.27;;;5.15;;
80163;SDS011;70071;55.130;61.268;2024-03-25T15:14:41;9.68;;;4.30;;
80163;SDS011;70071;55.130;61.268;2024-03-25T15:17:07;9.98;;;4.55;;
80163;SDS011;70071;55.130;61.268;2024-03-25T15:19:33;7.25;;;5.00;;
80163;SDS011;70071;55.130;61.268;2024-03-25T15:21:59;9.05;;;5.10;;